createdAt,value
2019-01-29T00:00:36.450Z,7.60
2019-01-29T00:01:40.242Z,7.07
2019-01-29T00:02:44.212Z,6.90
2019-01-29T00:03:47.940Z,7.50
2019-01-29T00:04:51.746Z,6.40
2019-01-29T00:05:55.525Z,6.57
2019-01-29T00:06:59.218Z,6.80
2019-01-29T00:08:02.916Z,6.70
2019-01-29T00:09:08.358Z,7.17
2019-01-29T00:10:12.169Z,7.17
2019-01-29T00:11:15.940Z,8.20
2019-01-29T00:12:19.644Z,7.60
2019-01-29T00:13:23.329Z,7.97
2019-01-29T00:14:27.020Z,7.07
2019-01-29T00:15:30.813Z,8.23
2019-01-29T00:16:34.611Z,7.80
2019-01-29T00:17:38.321Z,8.30
2019-01-29T00:18:41.999Z,7.80
2019-01-29T00:19:45.692Z,7.37
2019-01-29T00:20:49.390Z,8.37
2019-01-29T00:21:53.079Z,7.77
2019-01-29T00:22:56.775Z,7.73
2019-01-29T00:24:00.470Z,8.87
2019-01-29T00:25:05.698Z,8.23
2019-01-29T00:26:09.764Z,9.13
2019-01-29T00:27:13.452Z,7.83
2019-01-29T00:28:17.179Z,8.17
2019-01-29T00:29:20.874Z,8.23
2019-01-29T00:30:24.775Z,8.07
2019-01-29T00:31:28.464Z,9.13
2019-01-29T00:32:32.162Z,7.93
2019-01-29T00:33:35.863Z,9.30
2019-01-29T00:34:39.546Z,8.97
2019-01-29T00:35:43.193Z,8.30
2019-01-29T00:36:46.934Z,8.20
2019-01-29T00:37:50.632Z,10.03
2019-01-29T00:38:54.317Z,8.93
2019-01-29T00:39:57.975Z,8.67
2019-01-29T00:41:01.807Z,10.00
2019-01-29T00:42:05.501Z,8.67
2019-01-29T00:43:11.416Z,8.17
2019-01-29T00:44:15.138Z,8.53
2019-01-29T00:45:19.342Z,9.07
2019-01-29T00:46:22.987Z,8.17
2019-01-29T00:47:26.634Z,7.30
2019-01-29T00:48:30.322Z,8.97
2019-01-29T00:49:34.025Z,9.03
2019-01-29T00:50:37.673Z,9.43
2019-01-29T00:51:41.327Z,7.80
2019-01-29T00:52:45.095Z,8.03
2019-01-29T00:53:48.892Z,8.63
2019-01-29T00:54:52.581Z,9.60
2019-01-29T00:55:56.281Z,8.20
2019-01-29T00:56:59.969Z,7.90
2019-01-29T00:58:04.001Z,8.37
2019-01-29T00:59:07.796Z,7.43
2019-01-29T01:00:25.172Z,7.77
2019-01-29T01:01:28.915Z,8.17
2019-01-29T01:02:32.567Z,8.13
2019-01-29T01:03:36.260Z,9.27
2019-01-29T01:04:40.466Z,8.40
2019-01-29T01:05:44.125Z,7.70
2019-01-29T01:06:47.852Z,7.73
2019-01-29T01:07:51.951Z,8.50
2019-01-29T01:08:55.606Z,7.50
2019-01-29T01:09:59.343Z,8.23
2019-01-29T01:11:03.339Z,8.97
2019-01-29T01:12:07.092Z,9.30
2019-01-29T01:13:10.740Z,8.30
2019-01-29T01:14:14.418Z,8.40
2019-01-29T01:15:18.408Z,7.97
2019-01-29T01:16:22.127Z,7.77
2019-01-29T01:17:25.740Z,8.27
2019-01-29T01:18:29.722Z,8.07
2019-01-29T01:19:33.357Z,8.53
2019-01-29T01:20:37.125Z,8.00
2019-01-29T01:21:40.759Z,8.33
2019-01-29T01:22:50.623Z,7.20
2019-01-29T01:23:49.745Z,8.17
2019-01-29T01:24:53.380Z,8.97
2019-01-29T01:25:57.413Z,8.10
2019-01-29T01:27:01.053Z,8.43
2019-01-29T01:28:04.682Z,7.57
2019-01-29T01:29:08.313Z,8.53
2019-01-29T01:30:17.526Z,8.67
2019-01-29T01:31:21.232Z,8.63
2019-01-29T01:32:24.862Z,8.07
2019-01-29T01:33:28.499Z,8.03
2019-01-29T01:34:32.194Z,7.93
2019-01-29T01:35:35.757Z,8.27
2019-01-29T01:36:39.417Z,8.53
2019-01-29T01:37:43.052Z,8.60
2019-01-29T01:38:46.687Z,8.23
2019-01-29T01:39:50.319Z,8.70
2019-01-29T01:40:53.948Z,8.13
2019-01-29T01:41:57.683Z,8.67
2019-01-29T01:43:01.317Z,8.20
2019-01-29T01:44:05.055Z,8.80
2019-01-29T01:45:11.206Z,8.87
2019-01-29T01:46:14.842Z,8.07
2019-01-29T01:47:18.572Z,8.80
2019-01-29T01:48:22.209Z,8.70
2019-01-29T01:49:25.911Z,8.73
2019-01-29T01:50:29.541Z,9.10
2019-01-29T01:51:33.175Z,8.57
2019-01-29T01:52:36.847Z,8.17
2019-01-29T01:53:40.480Z,7.97
2019-01-29T01:54:44.114Z,8.07
2019-01-29T01:55:47.748Z,8.87
2019-01-29T01:56:51.376Z,9.40
2019-01-29T01:57:55.048Z,8.60
2019-01-29T01:58:58.681Z,8.23
2019-01-29T02:00:02.324Z,8.47
2019-01-29T02:01:06.118Z,8.73
2019-01-29T02:02:09.822Z,7.60
2019-01-29T02:03:13.489Z,8.80
2019-01-29T02:04:17.122Z,8.77
2019-01-29T02:05:21.127Z,8.93
2019-01-29T02:06:24.827Z,9.30
2019-01-29T02:07:28.467Z,8.83
2019-01-29T02:08:32.314Z,8.20
2019-01-29T02:09:35.983Z,9.23
2019-01-29T02:10:39.683Z,8.63
2019-01-29T02:11:43.316Z,9.07
2019-01-29T02:12:46.944Z,8.87
2019-01-29T02:13:50.614Z,7.97
2019-01-29T02:14:54.308Z,7.53
2019-01-29T02:15:57.950Z,7.67
2019-01-29T02:17:01.579Z,8.00
2019-01-29T02:18:05.275Z,7.77
2019-01-29T02:19:08.934Z,8.10
2019-01-29T02:20:14.908Z,9.03
2019-01-29T02:21:18.544Z,8.60
2019-01-29T02:22:22.183Z,8.70
2019-01-29T02:23:25.821Z,10.23
2019-01-29T02:24:29.483Z,9.67
2019-01-29T02:25:33.487Z,10.87
2019-01-29T02:26:37.196Z,18.40
2019-01-29T02:27:40.881Z,18.13
2019-01-29T02:28:44.525Z,19.37
2019-01-29T02:29:48.528Z,17.50
2019-01-29T02:30:52.170Z,15.87
2019-01-29T02:31:55.806Z,16.17
2019-01-29T02:32:59.816Z,16.47
2019-01-29T02:34:03.451Z,15.33
2019-01-29T02:35:07.524Z,17.10
2019-01-29T02:36:11.159Z,16.07
2019-01-29T02:37:14.792Z,16.40
2019-01-29T02:38:18.434Z,16.10
2019-01-29T02:39:22.069Z,16.77
2019-01-29T02:40:28.665Z,16.23
2019-01-29T02:41:32.409Z,14.63
2019-01-29T02:42:36.123Z,15.53
2019-01-29T02:43:39.756Z,13.27
2019-01-29T02:44:43.395Z,12.53
2019-01-29T02:45:47.078Z,12.77
2019-01-29T02:46:50.695Z,11.37
2019-01-29T02:47:54.334Z,9.93
2019-01-29T02:48:57.975Z,10.23
2019-01-29T02:50:01.589Z,9.80
2019-01-29T02:51:05.361Z,11.27
2019-01-29T02:52:08.994Z,9.73
2019-01-29T02:53:18.021Z,8.87
2019-01-29T02:54:17.978Z,9.00
2019-01-29T02:55:21.619Z,8.83
2019-01-29T02:56:25.284Z,8.83
2019-01-29T02:57:29.002Z,8.07
2019-01-29T02:58:32.636Z,9.73
2019-01-29T02:59:36.316Z,9.17
2019-01-29T03:00:39.953Z,10.03
2019-01-29T03:01:44.035Z,9.17
2019-01-29T03:02:47.866Z,10.00
2019-01-29T03:03:51.510Z,10.87
2019-01-29T03:04:55.136Z,10.20
2019-01-29T03:05:58.773Z,10.23
2019-01-29T03:07:02.448Z,9.17
2019-01-29T03:08:06.281Z,9.00
2019-01-29T03:09:09.911Z,9.30
2019-01-29T03:10:16.612Z,10.17
2019-01-29T03:11:20.241Z,8.03
2019-01-29T03:12:23.917Z,7.57
2019-01-29T03:13:28.017Z,6.80
2019-01-29T03:14:31.654Z,8.20
2019-01-29T03:15:35.504Z,8.70
2019-01-29T03:16:39.130Z,8.20
2019-01-29T03:17:42.804Z,8.07
2019-01-29T03:18:46.442Z,7.33
2019-01-29T03:19:50.072Z,7.13
2019-01-29T03:20:53.696Z,9.80
2019-01-29T03:21:57.325Z,16.17
2019-01-29T03:23:01.423Z,7.97
2019-01-29T03:24:05.355Z,7.27
2019-01-29T03:25:11.396Z,9.33
2019-01-29T03:26:15.105Z,6.93
2019-01-29T03:27:18.798Z,7.87
2019-01-29T03:28:22.483Z,7.80
2019-01-29T03:29:26.407Z,6.77
2019-01-29T03:30:30.032Z,6.20
2019-01-29T03:31:33.703Z,6.97
2019-01-29T03:32:37.313Z,10.43
2019-01-29T03:33:40.971Z,7.73
2019-01-29T03:34:44.604Z,7.77
2019-01-29T03:35:48.231Z,7.40
2019-01-29T03:36:52.151Z,6.57
2019-01-29T03:37:55.785Z,7.13
2019-01-29T03:38:59.451Z,7.30
2019-01-29T03:40:03.081Z,6.20
2019-01-29T03:41:06.721Z,6.83
2019-01-29T03:42:10.356Z,6.93
2019-01-29T03:43:13.992Z,7.03
2019-01-29T03:44:17.630Z,6.97
2019-01-29T03:45:21.532Z,7.20
2019-01-29T03:46:25.267Z,6.97
2019-01-29T03:47:28.899Z,6.50
2019-01-29T03:48:32.602Z,6.37
2019-01-29T03:49:36.591Z,6.73
2019-01-29T03:50:40.581Z,6.90
2019-01-29T03:51:44.208Z,7.10
2019-01-29T03:52:47.838Z,6.80
2019-01-29T03:53:51.469Z,7.80
2019-01-29T03:54:55.110Z,7.13
2019-01-29T03:55:58.757Z,7.80
2019-01-29T03:57:02.382Z,7.63
2019-01-29T03:58:06.086Z,6.90
2019-01-29T03:59:09.735Z,7.33
2019-01-29T04:00:22.295Z,8.00
2019-01-29T04:01:26.346Z,7.47
2019-01-29T04:02:30.316Z,7.50
2019-01-29T04:03:34.347Z,8.03
2019-01-29T04:04:37.970Z,7.27
2019-01-29T04:05:41.641Z,8.00
2019-01-29T04:06:45.267Z,7.67
2019-01-29T04:07:48.906Z,7.50
2019-01-29T04:08:52.534Z,7.90
2019-01-29T04:09:56.167Z,7.20
2019-01-29T04:10:59.839Z,7.87
2019-01-29T04:12:03.469Z,8.03
2019-01-29T04:13:07.106Z,7.63
2019-01-29T04:14:11.044Z,8.37
2019-01-29T04:15:16.666Z,7.87
2019-01-29T04:16:20.333Z,8.83
2019-01-29T04:17:23.971Z,6.77
2019-01-29T04:18:27.602Z,6.57
2019-01-29T04:19:31.234Z,6.20
2019-01-29T04:20:34.873Z,6.90
2019-01-29T04:21:38.540Z,7.20
2019-01-29T04:22:42.163Z,7.00
2019-01-29T04:23:47.779Z,6.97
2019-01-29T04:24:51.149Z,6.93
2019-01-29T04:25:54.778Z,7.00
2019-01-29T04:26:58.374Z,6.23
2019-01-29T04:28:02.066Z,7.43
2019-01-29T04:29:05.702Z,6.80
2019-01-29T04:30:15.194Z,6.87
2019-01-29T04:31:18.835Z,6.47
2019-01-29T04:32:22.506Z,6.37
2019-01-29T04:33:26.128Z,6.50
2019-01-29T04:34:29.756Z,6.43
2019-01-29T04:35:33.393Z,6.07
2019-01-29T04:36:37.018Z,6.43
2019-01-29T04:37:40.689Z,6.40
2019-01-29T04:38:44.323Z,6.80
2019-01-29T04:39:47.915Z,6.70
2019-01-29T04:40:51.545Z,8.93
2019-01-29T04:41:55.561Z,9.67
2019-01-29T04:42:59.233Z,9.60
2019-01-29T04:44:02.874Z,9.33
2019-01-29T04:45:09.176Z,8.33
2019-01-29T04:46:12.811Z,7.90
2019-01-29T04:47:16.441Z,8.27
2019-01-29T04:48:20.113Z,8.10
2019-01-29T04:49:23.763Z,13.30
2019-01-29T04:50:27.384Z,9.30
2019-01-29T04:51:31.038Z,10.30
2019-01-29T04:52:34.690Z,11.27
2019-01-29T04:53:38.369Z,14.13
2019-01-29T04:54:42.086Z,12.60
2019-01-29T04:55:45.715Z,12.50
2019-01-29T04:56:49.349Z,10.80
2019-01-29T04:57:52.993Z,10.93
2019-01-29T04:58:56.686Z,13.53
2019-01-29T05:00:00.314Z,13.07
2019-01-29T05:01:04.159Z,14.03
2019-01-29T05:02:08.089Z,12.03
2019-01-29T05:03:11.793Z,12.37
2019-01-29T05:04:15.462Z,10.70
2019-01-29T05:05:19.898Z,9.37
2019-01-29T05:06:23.597Z,8.20
2019-01-29T05:07:27.251Z,7.87
2019-01-29T05:08:30.882Z,9.60
2019-01-29T05:09:34.531Z,8.10
2019-01-29T05:10:38.160Z,8.27
2019-01-29T05:11:41.795Z,7.47
2019-01-29T05:12:45.426Z,6.63
2019-01-29T05:13:49.063Z,7.13
2019-01-29T05:14:52.731Z,7.80
2019-01-29T05:15:56.468Z,10.20
2019-01-29T05:17:00.177Z,10.83
2019-01-29T05:18:03.826Z,11.47
2019-01-29T05:19:07.463Z,9.33
2019-01-29T05:20:13.657Z,7.27
2019-01-29T05:21:17.382Z,8.47
2019-01-29T05:22:21.008Z,7.90
2019-01-29T05:23:24.648Z,13.93
2019-01-29T05:24:28.285Z,10.87
2019-01-29T05:25:31.930Z,8.57
2019-01-29T05:26:35.575Z,8.40
2019-01-29T05:27:39.201Z,9.67
2019-01-29T05:28:42.853Z,11.53
2019-01-29T05:29:46.516Z,9.90
2019-01-29T05:30:50.191Z,9.50
2019-01-29T05:31:54.198Z,14.27
2019-01-29T05:32:57.833Z,12.70
2019-01-29T05:34:01.472Z,11.33
2019-01-29T05:35:07.963Z,11.13
2019-01-29T05:36:11.628Z,11.57
2019-01-29T05:37:15.264Z,10.40
2019-01-29T05:38:18.898Z,10.73
2019-01-29T05:39:22.536Z,10.93
2019-01-29T05:40:26.174Z,15.50
2019-01-29T05:41:29.866Z,15.27
2019-01-29T05:42:33.508Z,23.90
2019-01-29T05:43:37.148Z,20.40
2019-01-29T05:44:40.881Z,16.60
2019-01-29T05:45:44.522Z,15.53
2019-01-29T05:46:48.175Z,14.53
2019-01-29T05:47:51.895Z,15.20
2019-01-29T05:48:55.533Z,16.83
2019-01-29T05:49:59.169Z,18.00
2019-01-29T05:51:02.809Z,19.87
2019-01-29T05:52:06.467Z,21.37
2019-01-29T05:53:10.102Z,26.90
2019-01-29T05:54:16.482Z,36.50
2019-01-29T05:55:19.037Z,36.13
2019-01-29T05:56:22.993Z,34.17
2019-01-29T05:57:26.676Z,40.83
2019-01-29T05:58:30.312Z,39.50
2019-01-29T05:59:33.943Z,41.97
2019-01-29T06:00:39.452Z,30.43
2019-01-29T06:01:43.086Z,30.67
2019-01-29T06:02:48.527Z,30.60
2019-01-29T06:03:52.463Z,28.67
2019-01-29T06:04:56.105Z,23.10
2019-01-29T06:05:59.752Z,18.37
2019-01-29T06:07:03.393Z,14.43
2019-01-29T06:08:07.063Z,15.00
2019-01-29T06:09:10.696Z,14.20
2019-01-29T06:10:16.742Z,15.60
2019-01-29T06:11:20.478Z,18.53
2019-01-29T06:12:24.415Z,17.47
2019-01-29T06:13:28.204Z,18.17
2019-01-29T06:14:31.847Z,14.30
2019-01-29T06:15:35.559Z,15.03
2019-01-29T06:16:39.207Z,13.00
2019-01-29T06:17:42.849Z,15.03
2019-01-29T06:18:46.522Z,13.33
2019-01-29T06:19:50.158Z,12.90
2019-01-29T06:20:53.792Z,10.70
2019-01-29T06:21:57.429Z,11.90
2019-01-29T06:23:01.069Z,11.00
2019-01-29T06:24:04.742Z,11.73
2019-01-29T06:25:08.450Z,12.63
2019-01-29T06:26:12.160Z,14.73
2019-01-29T06:27:15.924Z,20.13
2019-01-29T06:28:19.555Z,15.23
2019-01-29T06:29:23.707Z,54.50
2019-01-29T06:30:27.643Z,43.23
2019-01-29T06:31:31.273Z,40.77
2019-01-29T06:32:34.913Z,31.37
2019-01-29T06:33:38.551Z,25.13
2019-01-29T06:34:42.607Z,21.07
2019-01-29T06:35:46.237Z,19.93
2019-01-29T06:36:50.995Z,19.77
2019-01-29T06:37:54.686Z,24.13
2019-01-29T06:38:59.846Z,24.50
2019-01-29T06:40:04.297Z,23.47
2019-01-29T06:41:07.970Z,21.50
2019-01-29T06:42:11.893Z,22.73
2019-01-29T06:43:15.586Z,27.30
2019-01-29T06:44:19.279Z,27.60
2019-01-29T06:45:24.769Z,29.27
2019-01-29T06:46:28.406Z,28.67
2019-01-29T06:47:32.111Z,30.30
2019-01-29T06:48:36.017Z,29.47
2019-01-29T06:49:39.707Z,26.73
2019-01-29T06:50:43.349Z,27.07
2019-01-29T06:51:46.982Z,31.93
2019-01-29T06:52:50.840Z,37.93
2019-01-29T06:53:54.477Z,14.67
2019-01-29T06:54:59.892Z,22.30
2019-01-29T06:56:03.531Z,24.43
2019-01-29T06:57:07.200Z,23.90
2019-01-29T06:58:10.839Z,27.27
2019-01-29T06:59:14.474Z,32.57
2019-01-29T07:00:24.087Z,40.97
2019-01-29T07:01:27.724Z,46.43
2019-01-29T07:02:31.472Z,52.30
2019-01-29T07:03:35.115Z,54.50
2019-01-29T07:04:38.747Z,41.00
2019-01-29T07:05:42.815Z,38.47
2019-01-29T07:06:46.451Z,47.83
2019-01-29T07:07:50.091Z,45.47
2019-01-29T07:08:53.736Z,32.03
2019-01-29T07:09:57.373Z,31.77
2019-01-29T07:11:01.021Z,31.77
2019-01-29T07:12:04.671Z,33.87
2019-01-29T07:13:08.326Z,38.57
2019-01-29T07:14:11.961Z,34.70
2019-01-29T07:15:39.498Z,32.07
2019-01-29T07:16:44.794Z,31.70
2019-01-29T07:17:49.655Z,33.13
2019-01-29T07:18:57.647Z,36.27
2019-01-29T07:20:01.284Z,34.50
2019-01-29T07:21:07.271Z,34.30
2019-01-29T07:22:12.145Z,34.57
2019-01-29T07:23:15.828Z,33.43
2019-01-29T07:24:19.464Z,35.30
2019-01-29T07:25:23.104Z,36.20
2019-01-29T07:26:26.926Z,36.50
2019-01-29T07:27:30.607Z,34.63
2019-01-29T07:28:34.713Z,31.57
2019-01-29T07:29:38.351Z,31.63
2019-01-29T07:30:42.066Z,30.53
2019-01-29T07:31:45.734Z,30.30
2019-01-29T07:32:49.372Z,37.00
2019-01-29T07:33:53.014Z,31.73
2019-01-29T07:34:56.640Z,27.30
2019-01-29T07:36:00.268Z,25.33
2019-01-29T07:37:03.946Z,26.93
2019-01-29T07:38:07.585Z,27.57
2019-01-29T07:39:11.222Z,26.27
2019-01-29T07:40:15.008Z,24.50
2019-01-29T07:41:18.672Z,26.10
2019-01-29T07:42:22.353Z,25.80
2019-01-29T07:43:25.982Z,24.83
2019-01-29T07:44:29.622Z,24.00
2019-01-29T07:45:33.320Z,26.07
2019-01-29T07:46:36.964Z,27.33
2019-01-29T07:47:40.649Z,27.40
2019-01-29T07:48:44.281Z,26.40
2019-01-29T07:49:49.795Z,25.50
2019-01-29T07:50:53.498Z,25.87
2019-01-29T07:51:57.502Z,24.23
2019-01-29T07:53:01.267Z,23.43
2019-01-29T07:54:05.301Z,20.47
2019-01-29T07:55:10.442Z,18.43
2019-01-29T07:56:14.078Z,16.77
2019-01-29T07:57:17.716Z,16.77
2019-01-29T07:58:21.376Z,18.27
2019-01-29T07:59:32.668Z,20.20
2019-01-29T08:00:30.371Z,28.63
2019-01-29T08:01:34.392Z,26.10
2019-01-29T08:02:38.038Z,25.63
2019-01-29T08:03:41.703Z,23.10
2019-01-29T08:04:45.344Z,19.37
2019-01-29T08:05:48.978Z,17.67
2019-01-29T08:06:52.616Z,16.90
2019-01-29T08:07:56.264Z,17.67
2019-01-29T08:08:59.928Z,23.53
2019-01-29T08:10:03.832Z,30.60
2019-01-29T08:11:07.470Z,32.00
2019-01-29T08:12:11.293Z,31.27
2019-01-29T08:13:15.034Z,24.83
2019-01-29T08:14:20.555Z,24.20
2019-01-29T08:15:24.462Z,23.20
2019-01-29T08:16:28.092Z,23.70
2019-01-29T08:17:31.801Z,27.73
2019-01-29T08:18:35.526Z,31.47
2019-01-29T08:19:39.257Z,33.37
2019-01-29T08:20:42.890Z,31.20
2019-01-29T08:21:46.536Z,33.37
2019-01-29T08:22:50.176Z,33.33
2019-01-29T08:23:53.822Z,26.70
2019-01-29T08:25:01.877Z,27.83
2019-01-29T08:26:02.849Z,29.20
2019-01-29T08:27:08.584Z,32.83
2019-01-29T08:28:12.019Z,28.87
2019-01-29T08:29:16.048Z,29.60
2019-01-29T08:30:20.229Z,30.13
2019-01-29T08:31:23.980Z,31.20
2019-01-29T08:32:27.638Z,33.10
2019-01-29T08:33:31.279Z,30.23
2019-01-29T08:34:34.995Z,28.20
2019-01-29T08:35:38.770Z,35.73
2019-01-29T08:36:42.407Z,31.10
2019-01-29T08:37:46.168Z,34.17
2019-01-29T08:38:49.773Z,34.97
2019-01-29T08:39:53.419Z,40.50
2019-01-29T08:40:57.076Z,35.03
2019-01-29T08:42:00.808Z,34.37
2019-01-29T08:43:04.439Z,31.33
2019-01-29T08:44:08.074Z,32.57
2019-01-29T08:45:14.394Z,37.40
2019-01-29T08:46:18.080Z,47.43
2019-01-29T08:47:21.732Z,35.03
2019-01-29T08:48:25.729Z,36.57
2019-01-29T08:49:29.424Z,39.77
2019-01-29T08:50:33.065Z,40.80
2019-01-29T08:51:36.734Z,39.97
2019-01-29T08:52:40.398Z,37.73
2019-01-29T08:53:44.034Z,39.23
2019-01-29T08:54:47.667Z,35.60
2019-01-29T08:55:51.399Z,33.77
2019-01-29T08:56:55.043Z,34.33
2019-01-29T08:57:58.679Z,33.97
2019-01-29T08:59:02.315Z,35.03
2019-01-29T09:00:09.258Z,28.83
2019-01-29T09:01:12.900Z,27.27
2019-01-29T09:02:16.641Z,24.83
2019-01-29T09:03:20.447Z,22.00
2019-01-29T09:04:24.104Z,21.40
2019-01-29T09:05:27.741Z,30.73
2019-01-29T09:06:31.374Z,36.67
2019-01-29T09:07:35.058Z,24.47
2019-01-29T09:08:38.689Z,24.43
2019-01-29T09:09:42.330Z,24.37
2019-01-29T09:10:46.062Z,26.77
2019-01-29T09:11:49.697Z,35.17
2019-01-29T09:12:54.391Z,34.60
2019-01-29T09:13:58.026Z,35.83
2019-01-29T09:15:01.746Z,35.93
2019-01-29T09:16:05.478Z,37.80
2019-01-29T09:17:09.138Z,47.23
2019-01-29T09:18:12.884Z,33.37
2019-01-29T09:19:16.515Z,36.20
2019-01-29T09:20:21.825Z,36.60
2019-01-29T09:21:25.461Z,31.17
2019-01-29T09:22:29.167Z,23.70
2019-01-29T09:23:32.838Z,27.60
2019-01-29T09:24:36.470Z,24.93
2019-01-29T09:25:40.136Z,28.17
2019-01-29T09:26:43.785Z,28.87
2019-01-29T09:27:50.789Z,19.27
2019-01-29T09:28:54.418Z,17.87
2019-01-29T09:29:58.055Z,21.47
2019-01-29T09:31:02.161Z,10.80
2019-01-29T09:32:05.841Z,13.87
2019-01-29T09:33:09.565Z,9.97
2019-01-29T09:34:13.202Z,13.93
2019-01-29T09:35:16.912Z,18.90
2019-01-29T09:36:20.551Z,24.73
2019-01-29T09:37:24.236Z,24.93
2019-01-29T09:38:27.870Z,21.40
2019-01-29T09:39:31.542Z,8.97
2019-01-29T09:40:35.196Z,10.60
2019-01-29T09:41:38.836Z,20.10
2019-01-29T09:42:42.601Z,20.40
2019-01-29T09:43:46.250Z,17.07
2019-01-29T09:44:49.931Z,17.70
2019-01-29T09:45:53.652Z,17.67
2019-01-29T09:46:57.287Z,14.93
2019-01-29T09:48:01.028Z,22.33
2019-01-29T09:49:04.776Z,25.70
2019-01-29T09:50:11.520Z,17.13
2019-01-29T09:51:15.262Z,14.90
2019-01-29T09:52:18.928Z,16.27
2019-01-29T09:53:22.740Z,14.53
2019-01-29T09:54:26.380Z,13.07
2019-01-29T09:55:30.197Z,13.73
2019-01-29T09:56:33.871Z,23.10
2019-01-29T09:57:38.986Z,17.43
2019-01-29T09:58:42.658Z,19.07
2019-01-29T09:59:46.297Z,31.33
2019-01-29T10:00:50.818Z,45.67
2019-01-29T10:01:54.477Z,40.73
2019-01-29T10:02:58.267Z,33.03
2019-01-29T10:04:01.974Z,29.77
2019-01-29T10:05:08.330Z,32.33
2019-01-29T10:06:12.058Z,49.77
2019-01-29T10:07:15.680Z,39.87
2019-01-29T10:08:19.317Z,47.90
2019-01-29T10:09:23.063Z,34.43
2019-01-29T10:10:26.861Z,40.60
2019-01-29T10:11:30.724Z,35.87
2019-01-29T10:12:35.642Z,13.37
2019-01-29T10:13:41.931Z,16.67
2019-01-29T10:14:46.228Z,19.77
2019-01-29T10:15:49.951Z,15.73
2019-01-29T10:16:53.767Z,27.43
2019-01-29T10:17:58.944Z,25.37
2019-01-29T10:19:02.608Z,22.67
2019-01-29T10:20:07.530Z,19.63
2019-01-29T10:21:11.232Z,19.30
2019-01-29T10:22:15.062Z,24.53
2019-01-29T10:23:18.767Z,22.93
2019-01-29T10:24:22.668Z,18.40
2019-01-29T10:25:26.812Z,17.13
2019-01-29T10:26:30.550Z,15.80
2019-01-29T10:27:34.271Z,10.47
2019-01-29T10:28:38.003Z,19.33
2019-01-29T10:29:41.701Z,13.13
2019-01-29T10:30:45.470Z,11.70
2019-01-29T10:31:49.195Z,12.27
2019-01-29T10:32:53.569Z,21.07
2019-01-29T10:33:59.951Z,18.20
2019-01-29T10:35:07.131Z,15.60
2019-01-29T10:36:10.838Z,20.83
2019-01-29T10:37:14.594Z,19.40
2019-01-29T10:38:18.246Z,29.37
2019-01-29T10:39:21.961Z,20.07
2019-01-29T10:40:27.228Z,16.40
2019-01-29T10:41:30.962Z,16.50
2019-01-29T10:42:34.598Z,14.97
2019-01-29T10:43:38.233Z,15.03
2019-01-29T10:44:41.917Z,11.83
2019-01-29T10:45:45.632Z,10.63
2019-01-29T10:46:49.595Z,13.10
2019-01-29T10:47:53.232Z,19.07
2019-01-29T10:48:56.870Z,12.73
2019-01-29T10:50:00.585Z,13.27
2019-01-29T10:51:04.363Z,13.03
2019-01-29T10:52:08.100Z,15.10
2019-01-29T10:53:11.744Z,20.67
2019-01-29T10:54:15.372Z,21.17
2019-01-29T10:55:19.526Z,21.83
2019-01-29T10:56:23.162Z,20.53
2019-01-29T10:57:26.798Z,25.33
2019-01-29T10:58:30.436Z,26.63
2019-01-29T10:59:34.087Z,9.33
2019-01-29T11:00:40.330Z,6.60
2019-01-29T11:01:44.023Z,5.07
2019-01-29T11:02:47.995Z,5.43
2019-01-29T11:03:51.634Z,7.80
2019-01-29T11:04:55.559Z,10.00
2019-01-29T11:05:59.255Z,11.00
2019-01-29T11:07:03.317Z,15.60
2019-01-29T11:08:06.977Z,17.83
2019-01-29T11:09:11.737Z,19.50
2019-01-29T11:10:17.521Z,22.10
2019-01-29T11:11:21.154Z,24.70
2019-01-29T11:12:24.808Z,24.80
2019-01-29T11:13:28.471Z,24.90
2019-01-29T11:14:32.112Z,22.23
2019-01-29T11:15:38.059Z,24.70
2019-01-29T11:16:42.689Z,25.10
2019-01-29T11:17:46.336Z,22.57
2019-01-29T11:18:50.031Z,22.67
2019-01-29T11:19:53.665Z,27.10
2019-01-29T11:20:57.383Z,26.47
2019-01-29T11:22:01.025Z,26.00
2019-01-29T11:23:05.264Z,25.60
2019-01-29T11:24:08.914Z,25.73
2019-01-29T11:25:23.798Z,25.33
2019-01-29T11:26:27.437Z,25.70
2019-01-29T11:27:31.142Z,23.73
2019-01-29T11:28:34.884Z,25.27
2019-01-29T11:29:38.733Z,27.07
2019-01-29T11:30:42.474Z,25.83
2019-01-29T11:31:46.186Z,26.17
2019-01-29T11:32:49.863Z,25.60
2019-01-29T11:33:53.502Z,25.93
2019-01-29T11:34:57.212Z,27.80
2019-01-29T11:36:00.882Z,25.60
2019-01-29T11:37:05.019Z,26.97
2019-01-29T11:38:08.702Z,25.47
2019-01-29T11:39:12.443Z,24.43
2019-01-29T11:40:24.644Z,20.90
2019-01-29T11:41:28.345Z,21.17
2019-01-29T11:42:31.985Z,17.83
2019-01-29T11:43:35.657Z,17.83
2019-01-29T11:44:39.366Z,17.97
2019-01-29T11:45:46.003Z,16.87
2019-01-29T11:46:49.631Z,15.77
2019-01-29T11:47:53.269Z,15.90
2019-01-29T11:48:56.958Z,15.50
2019-01-29T11:50:00.942Z,18.80
2019-01-29T11:51:04.773Z,18.90
2019-01-29T11:52:08.484Z,19.93
2019-01-29T11:53:12.118Z,23.80
2019-01-29T11:54:15.788Z,23.90
2019-01-29T11:55:19.517Z,24.33
2019-01-29T11:56:23.151Z,24.13
2019-01-29T11:57:26.792Z,26.37
2019-01-29T11:58:30.439Z,24.63
2019-01-29T11:59:34.124Z,24.13
2019-01-29T12:00:40.201Z,25.43
2019-01-29T12:01:43.839Z,24.87
2019-01-29T12:02:47.478Z,25.60
2019-01-29T12:03:51.115Z,23.00
2019-01-29T12:04:54.791Z,24.83
2019-01-29T12:05:58.423Z,28.57
2019-01-29T12:07:02.129Z,23.17
2019-01-29T12:08:07.074Z,23.23
2019-01-29T12:09:10.914Z,26.67
2019-01-29T12:10:15.446Z,27.10
2019-01-29T12:11:19.156Z,23.13
2019-01-29T12:12:23.174Z,21.17
2019-01-29T12:13:26.813Z,20.47
2019-01-29T12:14:30.454Z,21.17
2019-01-29T12:15:34.123Z,23.43
2019-01-29T12:16:37.762Z,21.30
2019-01-29T12:17:41.400Z,20.03
2019-01-29T12:18:45.050Z,25.03
2019-01-29T12:19:48.766Z,28.27
2019-01-29T12:20:52.441Z,27.83
2019-01-29T12:21:56.081Z,19.10
2019-01-29T12:22:59.733Z,16.23
2019-01-29T12:24:03.364Z,18.33
2019-01-29T12:25:07.804Z,27.30
2019-01-29T12:26:13.324Z,26.17
2019-01-29T12:27:17.814Z,29.97
2019-01-29T12:28:21.683Z,35.53
2019-01-29T12:29:25.401Z,20.93
2019-01-29T12:30:30.342Z,21.90
2019-01-29T12:31:34.090Z,16.50
2019-01-29T12:32:37.804Z,14.20
2019-01-29T12:33:41.492Z,16.63
2019-01-29T12:34:45.218Z,17.20
2019-01-29T12:35:48.853Z,12.07
2019-01-29T12:36:52.530Z,13.23
2019-01-29T12:37:56.525Z,11.97
2019-01-29T12:39:00.164Z,14.50
2019-01-29T12:40:05.342Z,16.90
2019-01-29T12:41:08.974Z,15.97
2019-01-29T12:42:12.653Z,17.00
2019-01-29T12:43:16.385Z,16.50
2019-01-29T12:44:20.032Z,17.10
2019-01-29T12:45:24.576Z,29.20
2019-01-29T12:46:28.288Z,23.37
2019-01-29T12:47:32.056Z,17.27
2019-01-29T12:48:35.700Z,14.80
2019-01-29T12:49:39.433Z,12.47
2019-01-29T12:50:44.696Z,9.87
2019-01-29T12:51:50.004Z,9.47
2019-01-29T12:52:55.319Z,9.20
2019-01-29T12:53:59.296Z,8.30
2019-01-29T12:55:02.938Z,8.73
2019-01-29T12:56:06.573Z,8.20
2019-01-29T12:57:10.732Z,7.67
2019-01-29T12:58:14.422Z,9.07
2019-01-29T12:59:18.066Z,14.40
2019-01-29T13:00:23.384Z,13.83
2019-01-29T13:01:27.031Z,15.57
2019-01-29T13:02:30.683Z,16.13
2019-01-29T13:03:34.366Z,19.77
2019-01-29T13:04:38.045Z,21.93
2019-01-29T13:05:41.690Z,22.07
2019-01-29T13:06:45.372Z,19.30
2019-01-29T13:07:49.202Z,15.17
2019-01-29T13:08:53.252Z,14.57
2019-01-29T13:09:56.899Z,13.30
2019-01-29T13:11:00.632Z,11.63
2019-01-29T13:12:05.082Z,12.93
2019-01-29T13:13:09.017Z,17.80
2019-01-29T13:14:12.780Z,20.37
2019-01-29T13:15:29.634Z,21.17
2019-01-29T13:16:34.258Z,21.83
2019-01-29T13:17:38.008Z,19.80
2019-01-29T13:18:41.697Z,21.87
2019-01-29T13:19:45.339Z,25.90
2019-01-29T13:20:48.975Z,25.70
2019-01-29T13:21:52.605Z,25.73
2019-01-29T13:22:56.284Z,23.43
2019-01-29T13:23:59.926Z,19.33
2019-01-29T13:25:03.661Z,18.43
2019-01-29T13:26:07.336Z,18.00
2019-01-29T13:27:10.973Z,15.27
2019-01-29T13:28:14.665Z,18.67
2019-01-29T13:29:18.506Z,16.30
2019-01-29T13:30:27.980Z,16.23
2019-01-29T13:31:31.689Z,16.10
2019-01-29T13:32:35.399Z,16.47
2019-01-29T13:33:39.064Z,16.93
2019-01-29T13:34:42.738Z,19.77
2019-01-29T13:35:48.266Z,27.27
2019-01-29T13:36:52.561Z,28.97
2019-01-29T13:37:56.276Z,25.80
2019-01-29T13:38:59.928Z,21.80
2019-01-29T13:40:05.099Z,20.43
2019-01-29T13:41:08.733Z,25.83
2019-01-29T13:42:13.304Z,23.00
2019-01-29T13:43:17.020Z,20.93
2019-01-29T13:44:20.677Z,20.53
2019-01-29T13:45:24.597Z,23.73
2019-01-29T13:46:28.234Z,23.57
2019-01-29T13:47:31.875Z,23.23
2019-01-29T13:48:35.510Z,25.90
2019-01-29T13:49:39.146Z,25.60
2019-01-29T13:50:45.836Z,24.87
2019-01-29T13:51:49.476Z,29.77
2019-01-29T13:52:53.188Z,32.73
2019-01-29T13:53:56.828Z,37.30